Wetterdaten: Woche 19.07.10 - 25.07.10 (KW29)
Datum Zeit Temperatur Luftfeuchte Luftdruck Niederschlag Wind Richtung Sonnenschein Solar Taupunkt Windchill Windben
19.07.2010 00:00 16.3 C 81 % 1022.1 hPa 0.0 l/m 0.2 km/h (0 Bft) N-NW 0.00 h 0 W/m 13.0 C 16.3 C 1.0 km/h (0 Bft)
19.07.2010 01:00 16.0 C 82 % 1021.9 hPa 0.0 l/m 0.2 km/h (0 Bft) O-SO 0.00 h 0 W/m 12.9 C 16.0 C 0.9 km/h (0 Bft)
19.07.2010 02:00 15.4 C 85 % 1021.6 hPa 0.0 l/m 1.8 km/h (1 Bft) O-SO 0.00 h 0 W/m 12.8 C 15.4 C 3.5 km/h (1 Bft)
19.07.2010 03:00 14.6 C 88 % 1021.1 hPa 0.0 l/m 3.7 km/h (1 Bft) O-SO 0.00 h 0 W/m 12.6 C 14.6 C 5.1 km/h (1 Bft)
19.07.2010 04:00 14.3 C 89 % 1020.7 hPa 0.0 l/m 4.5 km/h (1 Bft) SO 0.00 h 0 W/m 12.5 C 14.3 C 5.9 km/h (2 Bft)
19.07.2010 05:00 13.9 C 90 % 1020.9 hPa 0.0 l/m 1.6 km/h (1 Bft) O-SO 0.00 h 6 W/m 12.2 C 13.9 C 2.5 km/h (1 Bft)
19.07.2010 06:00 13.8 C 90 % 1021.0 hPa 0.0 l/m 0.9 km/h (0 Bft) O-SO 0.00 h 18 W/m 12.2 C 13.8 C 2.3 km/h (1 Bft)
19.07.2010 07:00 15.3 C 89 % 1020.9 hPa 0.0 l/m 0.0 km/h (0 Bft) N 0.72 h 146 W/m 13.4 C 15.3 C 0.1 km/h (0 Bft)
19.07.2010 08:00 18.6 C 78 % 1020.7 hPa 0.0 l/m 0.5 km/h (0 Bft) SO 1.00 h 330 W/m 14.7 C 18.6 C 1.9 km/h (1 Bft)
19.07.2010 09:00 20.5 C 70 % 1020.4 hPa 0.0 l/m 3.8 km/h (1 Bft) O-SO 1.00 h 496 W/m 14.9 C 20.5 C 6.4 km/h (2 Bft)
19.07.2010 10:00 22.0 C 64 % 1020.3 hPa 0.0 l/m 6.2 km/h (2 Bft) O-SO 1.00 h 638 W/m 15.0 C 22.0 C 9.8 km/h (2 Bft)
19.07.2010 11:00 23.8 C 57 % 1019.9 hPa 0.0 l/m 5.3 km/h (1 Bft) O-SO 1.00 h 752 W/m 14.8 C 23.8 C 9.7 km/h (2 Bft)
19.07.2010 12:00 25.1 C 51 % 1019.6 hPa 0.0 l/m 6.6 km/h (2 Bft) O-SO 1.00 h 829 W/m 14.2 C 25.1 C 13.1 km/h (3 Bft)
19.07.2010 13:00 26.0 C 48 % 1019.1 hPa 0.0 l/m 6.0 km/h (2 Bft) O-SO 1.00 h 854 W/m 14.0 C 26.0 C 12.6 km/h (3 Bft)
19.07.2010 14:00 26.5 C 45 % 1018.9 hPa 0.0 l/m 7.2 km/h (2 Bft) O-SO 1.00 h 833 W/m 13.4 C 26.5 C 13.8 km/h (3 Bft)
19.07.2010 15:00 27.0 C 45 % 1018.5 hPa 0.0 l/m 7.4 km/h (2 Bft) O-SO 1.00 h 762 W/m 13.8 C 27.0 C 13.0 km/h (3 Bft)
19.07.2010 16:00 27.1 C 43 % 1018.1 hPa 0.0 l/m 6.7 km/h (2 Bft) O-SO 0.95 h 628 W/m 13.4 C 27.1 C 12.0 km/h (2 Bft)
19.07.2010 17:00 27.0 C 43 % 1017.8 hPa 0.0 l/m 6.2 km/h (2 Bft) O-SO 1.00 h 514 W/m 13.2 C 27.0 C 10.3 km/h (2 Bft)
19.07.2010 18:00 26.5 C 44 % 1017.5 hPa 0.0 l/m 6.9 km/h (2 Bft) O-SO 1.00 h 349 W/m 13.3 C 26.5 C 12.3 km/h (3 Bft)
19.07.2010 19:00 25.9 C 46 % 1017.1 hPa 0.0 l/m 5.2 km/h (1 Bft) O-SO 1.00 h 196 W/m 13.4 C 25.9 C 9.2 km/h (2 Bft)
19.07.2010 20:00 24.6 C 50 % 1016.9 hPa 0.0 l/m 2.7 km/h (1 Bft) O-SO 0.42 h 60 W/m 13.4 C 24.6 C 5.4 km/h (1 Bft)
19.07.2010 21:00 22.3 C 59 % 1017.3 hPa 0.0 l/m 1.3 km/h (1 Bft) O-SO 0.03 h 8 W/m 13.7 C 22.3 C 2.9 km/h (1 Bft)
19.07.2010 22:00 20.3 C 67 % 1017.6 hPa 0.0 l/m 0.1 km/h (0 Bft) O-SO 0.00 h 0 W/m 14.0 C 20.3 C 0.5 km/h (0 Bft)
19.07.2010 23:00 19.0 C 73 % 1017.3 hPa 0.0 l/m 0.1 km/h (0 Bft) O-SO 0.00 h 0 W/m 14.0 C 19.0 C 0.7 km/h (0 Bft)
20.07.2010 00:00 17.6 C 80 % 1017.2 hPa 0.0 l/m 0.0 km/h (0 Bft) O-SO 0.00 h 0 W/m 14.2 C 17.6 C 0.3 km/h (0 Bft)
20.07.2010 01:00 16.8 C 83 % 1016.8 hPa 0.0 l/m 0.0 km/h (0 Bft) O-SO 0.00 h 0 W/m 13.9 C 16.8 C 0.2 km/h (0 Bft)
20.07.2010 02:00 15.9 C 85 % 1016.4 hPa 0.0 l/m 1.6 km/h (1 Bft) O-SO 0.00 h 0 W/m 13.4 C 15.9 C 2.9 km/h (1 Bft)
20.07.2010 03:00 15.1 C 87 % 1015.8 hPa 0.0 l/m 1.2 km/h (1 Bft) O-SO 0.00 h 0 W/m 12.9 C 15.1 C 2.6 km/h (1 Bft)
20.07.2010 04:00 14.4 C 89 % 1015.5 hPa 0.0 l/m 1.1 km/h (1 Bft) O 0.00 h 0 W/m 12.6 C 14.4 C 2.0 km/h (1 Bft)
20.07.2010 05:00 14.2 C 89 % 1015.3 hPa 0.0 l/m 0.8 km/h (0 Bft) O 0.00 h 6 W/m 12.4 C 14.2 C 1.8 km/h (1 Bft)
20.07.2010 06:00 13.7 C 91 % 1015.4 hPa 0.0 l/m 0.4 km/h (0 Bft) O 0.00 h 17 W/m 12.3 C 13.7 C 0.9 km/h (0 Bft)
20.07.2010 07:00 15.4 C 89 % 1015.0 hPa 0.0 l/m 0.0 km/h (0 Bft) N 0.70 h 142 W/m 13.6 C 15.4 C 0.3 km/h (0 Bft)
20.07.2010 08:00 18.3 C 81 % 1014.8 hPa 0.0 l/m 0.7 km/h (0 Bft) NO 1.00 h 326 W/m 15.0 C 18.3 C 2.2 km/h (1 Bft)
20.07.2010 09:00 21.1 C 73 % 1014.6 hPa 0.0 l/m 1.1 km/h (1 Bft) NW 1.00 h 493 W/m 15.9 C 21.1 C 2.8 km/h (1 Bft)
20.07.2010 10:00 23.4 C 65 % 1014.1 hPa 0.0 l/m 1.0 km/h (0 Bft) W-NW 1.00 h 639 W/m 16.4 C 23.4 C 2.9 km/h (1 Bft)
20.07.2010 11:00 24.8 C 60 % 1013.7 hPa 0.0 l/m 3.2 km/h (1 Bft) O-SO 1.00 h 754 W/m 16.4 C 24.8 C 5.7 km/h (1 Bft)
20.07.2010 12:00 26.2 C 54 % 1013.1 hPa 0.0 l/m 4.0 km/h (1 Bft) O-SO 1.00 h 829 W/m 16.2 C 26.2 C 6.5 km/h (2 Bft)
20.07.2010 13:00 27.3 C 50 % 1012.5 hPa 0.0 l/m 3.0 km/h (1 Bft) O-SO 1.00 h 859 W/m 16.0 C 27.3 C 5.5 km/h (1 Bft)
20.07.2010 14:00 28.5 C 46 % 1011.8 hPa 0.0 l/m 3.4 km/h (1 Bft) SO 1.00 h 840 W/m 15.8 C 28.5 C 6.1 km/h (2 Bft)
20.07.2010 15:00 29.3 C 42 % 1011.1 hPa 0.0 l/m 3.1 km/h (1 Bft) O-SO 1.00 h 776 W/m 14.9 C 29.3 C 5.8 km/h (2 Bft)
20.07.2010 16:00 29.7 C 39 % 1010.5 hPa 0.0 l/m 2.6 km/h (1 Bft) O-SO 1.00 h 664 W/m 14.1 C 29.7 C 5.1 km/h (1 Bft)
20.07.2010 17:00 29.7 C 37 % 1009.9 hPa 0.0 l/m 2.6 km/h (1 Bft) O-SO 1.00 h 520 W/m 13.5 C 29.7 C 4.9 km/h (1 Bft)
20.07.2010 18:00 29.5 C 37 % 1009.4 hPa 0.0 l/m 2.7 km/h (1 Bft) O-SO 1.00 h 358 W/m 13.4 C 29.5 C 4.9 km/h (1 Bft)
20.07.2010 19:00 28.9 C 39 % 1009.0 hPa 0.0 l/m 2.1 km/h (1 Bft) O-SO 1.00 h 196 W/m 13.6 C 28.9 C 4.4 km/h (1 Bft)
20.07.2010 20:00 27.1 C 45 % 1008.8 hPa 0.0 l/m 3.4 km/h (1 Bft) O-SO 0.48 h 59 W/m 14.0 C 27.1 C 4.8 km/h (1 Bft)
20.07.2010 21:00 24.3 C 55 % 1009.1 hPa 0.0 l/m 0.9 km/h (0 Bft) O-SO 0.00 h 6 W/m 14.7 C 24.3 C 1.7 km/h (1 Bft)
20.07.2010 22:00 21.7 C 67 % 1009.5 hPa 0.0 l/m 0.7 km/h (0 Bft) O-SO 0.00 h 0 W/m 15.3 C 21.7 C 1.4 km/h (1 Bft)
20.07.2010 23:00 20.3 C 74 % 1009.4 hPa 0.0 l/m 0.9 km/h (0 Bft) O-SO 0.00 h 0 W/m 15.4 C 20.3 C 1.9 km/h (1 Bft)
21.07.2010 00:00 19.2 C 79 % 1009.4 hPa 0.0 l/m 0.3 km/h (0 Bft) O-SO 0.00 h 0 W/m 15.4 C 19.2 C 0.8 km/h (0 Bft)
21.07.2010 01:00 18.4 C 82 % 1009.4 hPa 0.0 l/m 0.7 km/h (0 Bft) O-SO 0.00 h 0 W/m 15.4 C 18.4 C 1.6 km/h (1 Bft)
21.07.2010 02:00 17.8 C 84 % 1009.0 hPa 0.0 l/m 1.0 km/h (0 Bft) O-SO 0.00 h 0 W/m 15.1 C 17.8 C 2.0 km/h (1 Bft)
21.07.2010 03:00 17.0 C 88 % 1009.0 hPa 0.0 l/m 1.0 km/h (0 Bft) O-SO 0.00 h 0 W/m 14.9 C 17.0 C 2.1 km/h (1 Bft)
21.07.2010 04:00 16.3 C 90 % 1009.0 hPa 0.0 l/m 1.0 km/h (0 Bft) O-SO 0.00 h 0 W/m 14.7 C 16.3 C 2.3 km/h (1 Bft)
21.07.2010 05:00 15.9 C 91 % 1009.3 hPa 0.0 l/m 1.7 km/h (1 Bft) O 0.00 h 6 W/m 14.5 C 15.9 C 3.2 km/h (1 Bft)
21.07.2010 06:00 16.1 C 91 % 1009.5 hPa 0.0 l/m 0.5 km/h (0 Bft) O-SO 0.02 h 21 W/m 14.7 C 16.1 C 1.6 km/h (1 Bft)
21.07.2010 07:00 17.2 C 90 % 1009.7 hPa 0.0 l/m 0.0 km/h (0 Bft) N 0.58 h 126 W/m 15.5 C 17.2 C 0.1 km/h (0 Bft)
21.07.2010 08:00 19.7 C 83 % 1009.7 hPa 0.0 l/m 0.0 km/h (0 Bft) N 1.00 h 293 W/m 16.8 C 19.7 C 0.4 km/h (0 Bft)
21.07.2010 09:00 22.5 C 75 % 1009.8 hPa 0.0 l/m 1.2 km/h (1 Bft) SO 1.00 h 448 W/m 17.9 C 22.5 C 3.0 km/h (1 Bft)
21.07.2010 10:00 25.5 C 65 % 1009.5 hPa 0.0 l/m 2.5 km/h (1 Bft) S-SO 0.97 h 576 W/m 18.5 C 25.5 C 5.2 km/h (1 Bft)
21.07.2010 11:00 28.2 C 55 % 1009.3 hPa 0.0 l/m 2.1 km/h (1 Bft) O-SO 1.00 h 719 W/m 18.1 C 28.2 C 4.3 km/h (1 Bft)
21.07.2010 12:00 29.4 C 50 % 1009.0 hPa 0.0 l/m 3.5 km/h (1 Bft) SO 0.87 h 703 W/m 17.8 C 29.4 C 6.3 km/h (2 Bft)
21.07.2010 13:00 30.7 C 46 % 1008.4 hPa 0.0 l/m 4.2 km/h (1 Bft) O-SO 1.00 h 833 W/m 17.7 C 30.7 C 7.2 km/h (2 Bft)
21.07.2010 14:00 31.9 C 43 % 1007.7 hPa 0.0 l/m 4.0 km/h (1 Bft) O-SO 1.00 h 805 W/m 17.6 C 31.9 C 7.7 km/h (2 Bft)
21.07.2010 15:00 32.6 C 40 % 1007.3 hPa 0.0 l/m 4.4 km/h (1 Bft) O-SO 1.00 h 752 W/m 17.1 C 32.6 C 7.5 km/h (2 Bft)
21.07.2010 16:00 33.2 C 36 % 1006.8 hPa 0.0 l/m 5.4 km/h (1 Bft) S-SO 1.00 h 634 W/m 16.1 C 33.2 C 9.5 km/h (2 Bft)
21.07.2010 17:00 33.5 C 36 % 1006.4 hPa 0.0 l/m 5.6 km/h (1 Bft) W 0.88 h 458 W/m 16.4 C 33.5 C 10.2 km/h (2 Bft)
21.07.2010 18:00 30.6 C 42 % 1007.0 hPa 0.0 l/m 13.6 km/h (3 Bft) W 0.25 h 181 W/m 16.3 C 30.6 C 20.9 km/h (4 Bft)
21.07.2010 19:00 29.5 C 45 % 1007.3 hPa 0.0 l/m 8.2 km/h (2 Bft) W-NW 0.67 h 163 W/m 16.4 C 29.5 C 13.1 km/h (3 Bft)
21.07.2010 20:00 27.8 C 49 % 1008.0 hPa 0.0 l/m 7.0 km/h (2 Bft) W 0.30 h 51 W/m 15.9 C 27.8 C 11.5 km/h (2 Bft)
21.07.2010 21:00 26.6 C 51 % 1009.1 hPa 0.0 l/m 5.9 km/h (2 Bft) W 0.00 h 6 W/m 15.5 C 26.6 C 10.2 km/h (2 Bft)
21.07.2010 22:00 25.7 C 54 % 1009.7 hPa 0.0 l/m 3.4 km/h (1 Bft) W 0.00 h 0 W/m 15.7 C 25.7 C 6.4 km/h (2 Bft)
21.07.2010 23:00 22.6 C 71 % 1010.7 hPa 4.8 l/m 13.3 km/h (3 Bft) W 0.00 h 0 W/m 16.7 C 22.6 C 21.4 km/h (4 Bft)
22.07.2010 00:00 19.2 C 91 % 1011.5 hPa 1.2 l/m 3.1 km/h (1 Bft) W 0.00 h 0 W/m 17.7 C 19.2 C 5.9 km/h (2 Bft)
22.07.2010 01:00 18.9 C 92 % 1011.4 hPa 0.0 l/m 0.7 km/h (0 Bft) O-NO 0.00 h 0 W/m 17.5 C 18.9 C 2.1 km/h (1 Bft)
22.07.2010 02:00 18.6 C 92 % 1011.2 hPa 0.0 l/m 1.1 km/h (1 Bft) O-SO 0.00 h 0 W/m 17.2 C 18.6 C 2.5 km/h (1 Bft)
22.07.2010 03:00 18.0 C 93 % 1011.2 hPa 0.0 l/m 0.7 km/h (0 Bft) O-NO 0.00 h 0 W/m 17.0 C 18.0 C 1.7 km/h (1 Bft)
22.07.2010 04:00 17.7 C 96 % 1011.1 hPa 0.0 l/m 0.2 km/h (0 Bft) O 0.00 h 0 W/m 17.1 C 17.7 C 0.7 km/h (0 Bft)
22.07.2010 05:00 17.7 C 97 % 1011.3 hPa 0.0 l/m 1.0 km/h (0 Bft) O 0.00 h 5 W/m 17.2 C 17.7 C 2.0 km/h (1 Bft)
22.07.2010 06:00 17.8 C 96 % 1011.6 hPa 0.0 l/m 1.2 km/h (1 Bft) O 0.12 h 36 W/m 17.2 C 17.8 C 2.1 km/h (1 Bft)
22.07.2010 07:00 18.5 C 96 % 1011.8 hPa 0.0 l/m 0.2 km/h (0 Bft) O-SO 0.32 h 110 W/m 17.8 C 18.5 C 0.9 km/h (0 Bft)
22.07.2010 08:00 19.2 C 95 % 1012.2 hPa 0.0 l/m 0.3 km/h (0 Bft) NO 0.00 h 117 W/m 18.4 C 19.2 C 1.2 km/h (1 Bft)
22.07.2010 09:00 20.7 C 93 % 1012.3 hPa 0.0 l/m 2.2 km/h (1 Bft) N-NW 0.53 h 376 W/m 19.5 C 20.7 C 4.1 km/h (1 Bft)
22.07.2010 10:00 22.2 C 87 % 1012.1 hPa 0.0 l/m 2.3 km/h (1 Bft) N-NW 0.70 h 469 W/m 19.9 C 22.2 C 4.6 km/h (1 Bft)
22.07.2010 11:00 23.9 C 81 % 1012.3 hPa 0.0 l/m 2.0 km/h (1 Bft) NW 0.73 h 571 W/m 20.4 C 23.9 C 4.1 km/h (1 Bft)
22.07.2010 12:00 25.6 C 73 % 1012.1 hPa 0.0 l/m 3.5 km/h (1 Bft) N-NW 0.83 h 729 W/m 20.3 C 25.6 C 6.0 km/h (2 Bft)
22.07.2010 13:00 26.6 C 68 % 1011.5 hPa 0.0 l/m 4.2 km/h (1 Bft) W 0.93 h 640 W/m 20.1 C 26.6 C 6.8 km/h (2 Bft)
22.07.2010 14:00 26.5 C 66 % 1011.3 hPa 0.0 l/m 8.8 km/h (2 Bft) W 0.95 h 570 W/m 19.5 C 26.5 C 14.4 km/h (3 Bft)
22.07.2010 15:00 24.8 C 71 % 1011.4 hPa 0.0 l/m 14.7 km/h (3 Bft) W 0.37 h 379 W/m 19.2 C 24.8 C 23.1 km/h (4 Bft)
22.07.2010 16:00 21.1 C 87 % 1012.5 hPa 0.8 l/m 12.8 km/h (3 Bft) W 0.00 h 44 W/m 18.8 C 21.1 C 20.2 km/h (4 Bft)
22.07.2010 17:00 20.1 C 94 % 1013.0 hPa 0.0 l/m 3.4 km/h (1 Bft) W 0.00 h 156 W/m 19.1 C 20.1 C 6.1 km/h (2 Bft)
22.07.2010 18:00 20.3 C 92 % 1013.3 hPa 0.0 l/m 1.0 km/h (0 Bft) W 0.00 h 74 W/m 19.1 C 20.3 C 2.9 km/h (1 Bft)
22.07.2010 19:00 19.9 C 92 % 1013.6 hPa 0.8 l/m 1.8 km/h (1 Bft) W 0.00 h 17 W/m 18.6 C 19.9 C 3.3 km/h (1 Bft)
22.07.2010 20:00 19.2 C 96 % 1014.9 hPa 7.6 l/m 2.3 km/h (1 Bft) SO 0.00 h 5 W/m 18.5 C 19.2 C 4.1 km/h (1 Bft)
22.07.2010 21:00 18.9 C 97 % 1015.5 hPa 0.0 l/m 0.6 km/h (0 Bft) S 0.02 h 7 W/m 18.4 C 18.9 C 2.2 km/h (1 Bft)
22.07.2010 22:00 18.8 C 97 % 1016.0 hPa 2.2 l/m 0.5 km/h (0 Bft) S-SO 0.00 h 0 W/m 18.3 C 18.8 C 1.7 km/h (1 Bft)
22.07.2010 23:00 18.8 C 98 % 1016.0 hPa 0.0 l/m 0.4 km/h (0 Bft) S-SO 0.00 h 0 W/m 18.4 C 18.8 C 1.4 km/h (1 Bft)
23.07.2010 00:00 18.6 C 97 % 1015.8 hPa 0.0 l/m 0.0 km/h (0 Bft) S-SO 0.00 h 0 W/m 18.1 C 18.6 C 0.7 km/h (0 Bft)
23.07.2010 01:00 18.6 C 96 % 1015.6 hPa 0.0 l/m 0.0 km/h (0 Bft) S-SO 0.00 h 0 W/m 18.0 C 18.6 C 0.2 km/h (0 Bft)
23.07.2010 02:00 18.6 C 97 % 1015.5 hPa 0.0 l/m 0.1 km/h (0 Bft) S-SO 0.00 h 0 W/m 18.1 C 18.6 C 0.9 km/h (0 Bft)
23.07.2010 03:00 18.4 C 97 % 1015.6 hPa 0.2 l/m 0.2 km/h (0 Bft) S-SO 0.00 h 0 W/m 18.0 C 18.4 C 0.4 km/h (0 Bft)
23.07.2010 04:00 18.3 C 98 % 1015.8 hPa 0.0 l/m 0.1 km/h (0 Bft) S-SO 0.00 h 0 W/m 18.0 C 18.3 C 0.6 km/h (0 Bft)
23.07.2010 05:00 17.9 C 98 % 1015.6 hPa 0.0 l/m 0.3 km/h (0 Bft) S-SO 0.00 h 0 W/m 17.6 C 17.9 C 1.0 km/h (0 Bft)
23.07.2010 06:00 18.1 C 98 % 1015.8 hPa 0.0 l/m 0.0 km/h (0 Bft) N 0.00 h 17 W/m 17.7 C 18.1 C 0.2 km/h (0 Bft)
23.07.2010 07:00 18.4 C 96 % 1015.5 hPa 0.0 l/m 0.3 km/h (0 Bft) S-SO 0.13 h 89 W/m 17.8 C 18.4 C 1.1 km/h (1 Bft)
23.07.2010 08:00 18.8 C 96 % 1015.6 hPa 0.0 l/m 0.1 km/h (0 Bft) S-SO 0.00 h 110 W/m 18.1 C 18.8 C 0.6 km/h (0 Bft)
23.07.2010 09:00 18.8 C 95 % 1015.5 hPa 0.0 l/m 1.4 km/h (1 Bft) W 0.00 h 178 W/m 18.0 C 18.8 C 3.5 km/h (1 Bft)
23.07.2010 10:00 18.6 C 93 % 1015.4 hPa 0.0 l/m 2.1 km/h (1 Bft) W-NW 0.00 h 145 W/m 17.5 C 18.6 C 4.6 km/h (1 Bft)
23.07.2010 11:00 17.9 C 93 % 1015.3 hPa 0.0 l/m 9.4 km/h (2 Bft) W 0.00 h 156 W/m 16.6 C 17.9 C 16.8 km/h (3 Bft)
23.07.2010 12:00 17.5 C 93 % 1015.3 hPa 2.4 l/m 7.9 km/h (2 Bft) W 0.00 h 58 W/m 16.3 C 17.5 C 14.6 km/h (3 Bft)
23.07.2010 13:00 16.2 C 97 % 1015.7 hPa 2.6 l/m 5.3 km/h (1 Bft) W 0.00 h 74 W/m 15.8 C 16.2 C 9.7 km/h (2 Bft)
23.07.2010 14:00 15.9 C 97 % 1016.3 hPa 1.0 l/m 4.5 km/h (1 Bft) W 0.00 h 131 W/m 15.4 C 15.9 C 8.0 km/h (2 Bft)
23.07.2010 15:00 15.8 C 98 % 1016.8 hPa 1.4 l/m 8.9 km/h (2 Bft) W 0.00 h 148 W/m 15.5 C 15.8 C 14.9 km/h (3 Bft)
23.07.2010 16:00 15.9 C 98 % 1017.2 hPa 0.2 l/m 6.6 km/h (2 Bft) W 0.00 h 145 W/m 15.6 C 15.9 C 11.9 km/h (2 Bft)
23.07.2010 17:00 15.7 C 97 % 1018.0 hPa 0.2 l/m 11.5 km/h (2 Bft) W 0.00 h 120 W/m 15.2 C 15.7 C 19.2 km/h (3 Bft)
23.07.2010 18:00 14.7 C 95 % 1018.4 hPa 0.0 l/m 7.6 km/h (2 Bft) W 0.00 h 78 W/m 13.8 C 14.7 C 12.1 km/h (2 Bft)
23.07.2010 19:00 15.2 C 92 % 1019.0 hPa 0.0 l/m 1.7 km/h (1 Bft) S 0.00 h 57 W/m 13.9 C 15.2 C 4.3 km/h (1 Bft)
23.07.2010 20:00 15.1 C 92 % 1019.6 hPa 0.0 l/m 1.5 km/h (1 Bft) S-SO 0.05 h 33 W/m 13.9 C 15.1 C 3.6 km/h (1 Bft)
23.07.2010 21:00 14.9 C 93 % 1019.8 hPa 0.0 l/m 1.3 km/h (1 Bft) S-SO 0.02 h 8 W/m 13.9 C 14.9 C 3.0 km/h (1 Bft)
23.07.2010 22:00 14.6 C 95 % 1020.1 hPa 0.0 l/m 0.5 km/h (0 Bft) S 0.00 h 0 W/m 13.8 C 14.6 C 1.8 km/h (1 Bft)
23.07.2010 23:00 14.3 C 96 % 1020.1 hPa 0.0 l/m 1.0 km/h (0 Bft) S-SO 0.00 h 0 W/m 13.6 C 14.3 C 2.4 km/h (1 Bft)
24.07.2010 00:00 14.3 C 94 % 1020.3 hPa 0.2 l/m 1.2 km/h (1 Bft) S-SO 0.00 h 0 W/m 13.4 C 14.3 C 2.7 km/h (1 Bft)
24.07.2010 01:00 14.1 C 95 % 1020.4 hPa 0.2 l/m 0.8 km/h (0 Bft) S-SO 0.00 h 0 W/m 13.3 C 14.1 C 2.7 km/h (1 Bft)
24.07.2010 02:00 13.7 C 96 % 1020.4 hPa 0.6 l/m 1.4 km/h (1 Bft) S-SO 0.00 h 0 W/m 13.1 C 13.7 C 3.6 km/h (1 Bft)
24.07.2010 03:00 13.5 C 95 % 1020.1 hPa 0.2 l/m 1.5 km/h (1 Bft) S-SO 0.00 h 0 W/m 12.6 C 13.5 C 3.8 km/h (1 Bft)
24.07.2010 04:00 13.3 C 94 % 1020.0 hPa 0.0 l/m 1.6 km/h (1 Bft) S-SO 0.00 h 0 W/m 12.4 C 13.3 C 3.5 km/h (1 Bft)
24.07.2010 05:00 13.3 C 95 % 1020.2 hPa 0.0 l/m 0.6 km/h (0 Bft) S-SO 0.00 h 0 W/m 12.6 C 13.3 C 2.2 km/h (1 Bft)
24.07.2010 06:00 13.6 C 95 % 1020.6 hPa 0.0 l/m 1.6 km/h (1 Bft) W 0.00 h 6 W/m 12.8 C 13.6 C 3.3 km/h (1 Bft)
24.07.2010 07:00 13.6 C 96 % 1020.7 hPa 0.2 l/m 4.1 km/h (1 Bft) W 0.00 h 32 W/m 12.9 C 13.6 C 7.9 km/h (2 Bft)
24.07.2010 08:00 13.5 C 97 % 1020.8 hPa 0.6 l/m 3.7 km/h (1 Bft) W 0.00 h 31 W/m 13.1 C 13.5 C 7.4 km/h (2 Bft)
24.07.2010 09:00 13.8 C 97 % 1021.1 hPa 0.0 l/m 1.9 km/h (1 Bft) W 0.00 h 41 W/m 13.4 C 13.8 C 3.9 km/h (1 Bft)
24.07.2010 10:00 13.9 C 97 % 1021.6 hPa 0.0 l/m 3.2 km/h (1 Bft) W 0.00 h 42 W/m 13.4 C 13.9 C 6.2 km/h (2 Bft)
24.07.2010 11:00 14.0 C 97 % 1021.9 hPa 0.0 l/m 4.4 km/h (1 Bft) W 0.00 h 66 W/m 13.5 C 14.0 C 7.7 km/h (2 Bft)
24.07.2010 12:00 14.5 C 95 % 1021.8 hPa 0.0 l/m 5.6 km/h (1 Bft) W 0.00 h 113 W/m 13.7 C 14.5 C 9.7 km/h (2 Bft)
24.07.2010 13:00 15.7 C 91 % 1021.5 hPa 0.0 l/m 10.3 km/h (2 Bft) W 0.08 h 328 W/m 14.2 C 15.7 C 16.9 km/h (3 Bft)
24.07.2010 14:00 16.6 C 87 % 1021.0 hPa 0.0 l/m 6.8 km/h (2 Bft) W-SW 0.00 h 269 W/m 14.5 C 16.6 C 11.5 km/h (2 Bft)
24.07.2010 15:00 17.6 C 84 % 1020.6 hPa 0.0 l/m 4.7 km/h (1 Bft) SW 0.07 h 271 W/m 14.9 C 17.6 C 8.2 km/h (2 Bft)
24.07.2010 16:00 17.3 C 83 % 1020.5 hPa 0.0 l/m 3.6 km/h (1 Bft) W 0.00 h 99 W/m 14.4 C 17.3 C 6.4 km/h (2 Bft)
24.07.2010 17:00 17.1 C 84 % 1020.3 hPa 0.0 l/m 2.1 km/h (1 Bft) W-NW 0.00 h 64 W/m 14.5 C 17.1 C 3.6 km/h (1 Bft)
24.07.2010 18:00 17.7 C 85 % 1020.2 hPa 0.0 l/m 1.1 km/h (1 Bft) S-SO 0.10 h 122 W/m 15.1 C 17.7 C 3.1 km/h (1 Bft)
24.07.2010 19:00 18.1 C 83 % 1019.9 hPa 0.0 l/m 3.9 km/h (1 Bft) W-SW 0.40 h 130 W/m 15.2 C 18.1 C 6.9 km/h (2 Bft)
24.07.2010 20:00 17.2 C 78 % 1020.2 hPa 0.0 l/m 2.7 km/h (1 Bft) W-SW 0.23 h 51 W/m 13.3 C 17.2 C 5.0 km/h (1 Bft)
24.07.2010 21:00 15.7 C 85 % 1020.5 hPa 0.0 l/m 1.4 km/h (1 Bft) O-SO 0.02 h 7 W/m 13.2 C 15.7 C 2.4 km/h (1 Bft)
24.07.2010 22:00 14.7 C 90 % 1020.6 hPa 0.0 l/m 1.2 km/h (1 Bft) S-SO 0.00 h 0 W/m 13.1 C 14.7 C 3.0 km/h (1 Bft)
24.07.2010 23:00 13.5 C 95 % 1020.7 hPa 0.0 l/m 0.7 km/h (0 Bft) S-SO 0.00 h 0 W/m 12.6 C 13.5 C 2.0 km/h (1 Bft)
25.07.2010 00:00 13.1 C 95 % 1020.3 hPa 0.0 l/m 1.2 km/h (1 Bft) O 0.00 h 0 W/m 12.4 C 13.1 C 2.4 km/h (1 Bft)
25.07.2010 01:00 12.3 C 97 % 1020.0 hPa 0.0 l/m 0.2 km/h (0 Bft) O 0.00 h 0 W/m 11.8 C 12.3 C 0.6 km/h (0 Bft)
25.07.2010 02:00 11.5 C 97 % 1019.7 hPa 0.0 l/m 0.0 km/h (0 Bft) N 0.00 h 0 W/m 11.1 C 11.5 C 0.1 km/h (0 Bft)
25.07.2010 03:00 10.9 C 97 % 1019.2 hPa 0.0 l/m 0.5 km/h (0 Bft) O 0.00 h 0 W/m 10.5 C 10.9 C 1.0 km/h (0 Bft)
25.07.2010 04:00 10.6 C 98 % 1019.0 hPa 0.0 l/m 0.0 km/h (0 Bft) O 0.00 h 0 W/m 10.3 C 10.6 C 0.5 km/h (0 Bft)
25.07.2010 05:00 10.8 C 99 % 1019.0 hPa 0.0 l/m 0.0 km/h (0 Bft) O 0.00 h 0 W/m 10.6 C 10.8 C 0.3 km/h (0 Bft)
25.07.2010 06:00 11.2 C 99 % 1018.9 hPa 0.0 l/m 0.0 km/h (0 Bft) N 0.00 h 16 W/m 11.0 C 11.2 C 0.1 km/h (0 Bft)
25.07.2010 07:00 11.6 C 99 % 1018.9 hPa 0.0 l/m 0.2 km/h (0 Bft) O 0.00 h 55 W/m 11.5 C 11.6 C 0.4 km/h (0 Bft)
25.07.2010 08:00 12.4 C 97 % 1018.9 hPa 0.0 l/m 0.0 km/h (0 Bft) N 0.00 h 132 W/m 12.0 C 12.4 C 0.1 km/h (0 Bft)
25.07.2010 09:00 15.1 C 88 % 1018.6 hPa 0.0 l/m 0.3 km/h (0 Bft) O 0.87 h 441 W/m 13.1 C 15.1 C 1.2 km/h (1 Bft)
25.07.2010 10:00 18.5 C 73 % 1017.7 hPa 0.0 l/m 0.9 km/h (0 Bft) W 1.00 h 645 W/m 13.5 C 18.5 C 2.7 km/h (1 Bft)
25.07.2010 11:00 20.1 C 55 % 1017.2 hPa 0.0 l/m 4.4 km/h (1 Bft) N 0.90 h 758 W/m 10.7 C 20.1 C 7.3 km/h (2 Bft)
25.07.2010 12:00 19.8 C 56 % 1017.0 hPa 0.0 l/m 4.0 km/h (1 Bft) W-NW 0.50 h 614 W/m 10.8 C 19.8 C 6.6 km/h (2 Bft)
25.07.2010 13:00 20.8 C 50 % 1016.6 hPa 0.0 l/m 3.1 km/h (1 Bft) W 0.68 h 688 W/m 9.9 C 20.8 C 5.7 km/h (1 Bft)
25.07.2010 14:00 20.9 C 51 % 1016.3 hPa 0.0 l/m 1.9 km/h (1 Bft) N-NO 0.32 h 472 W/m 10.2 C 20.9 C 4.2 km/h (1 Bft)
25.07.2010 15:00 21.2 C 53 % 1016.0 hPa 0.0 l/m 2.3 km/h (1 Bft) N-NW 0.33 h 486 W/m 11.0 C 21.2 C 4.4 km/h (1 Bft)
25.07.2010 16:00 20.9 C 53 % 1015.8 hPa 0.0 l/m 4.4 km/h (1 Bft) W 0.15 h 377 W/m 10.8 C 20.9 C 6.9 km/h (2 Bft)
25.07.2010 17:00 21.8 C 47 % 1015.4 hPa 0.0 l/m 4.0 km/h (1 Bft) W-NW 0.70 h 444 W/m 10.1 C 21.8 C 6.2 km/h (2 Bft)
25.07.2010 18:00 21.3 C 51 % 1015.2 hPa 0.0 l/m 2.3 km/h (1 Bft) W-NW 0.60 h 268 W/m 10.6 C 21.3 C 4.5 km/h (1 Bft)
25.07.2010 19:00 20.2 C 55 % 1015.0 hPa 0.0 l/m 0.0 km/h (0 Bft) N 0.30 h 109 W/m 10.9 C 20.2 C 0.3 km/h (0 Bft)
25.07.2010 20:00 18.5 C 65 % 1015.0 hPa 0.0 l/m 1.0 km/h (0 Bft) S-SW 0.00 h 19 W/m 11.7 C 18.5 C 3.1 km/h (1 Bft)
25.07.2010 21:00 17.8 C 67 % 1015.0 hPa 0.0 l/m 1.2 km/h (1 Bft) NW 0.00 h 0 W/m 11.5 C 17.8 C 2.7 km/h (1 Bft)
25.07.2010 22:00 17.4 C 72 % 1015.0 hPa 0.0 l/m 0.3 km/h (0 Bft) W-NW 0.00 h 0 W/m 12.2 C 17.4 C 1.3 km/h (1 Bft)
25.07.2010 23:00 16.6 C 77 % 1014.9 hPa 0.0 l/m 1.4 km/h (1 Bft) O 0.00 h 0 W/m 12.5 C 16.6 C 2.5 km/h (1 Bft)
Min-Datum _ 25.07.10 21.07.10 21.07.10 - 19.07.10 - - - 25.07.10 25.07.10 19.07.10
_ Min-Zeit 04:03 16:14 17:15 - 00:00 - - - 14:49 04:04 00:00
Minimum _ 10.4 C 32 % 1006.4 hPa - 0.0 km/h (0 Bft) - - - 7.3 C 10.4 C 0.0 km/h (0 Bft)
Max-Datum _ 21.07.10 25.07.10 19.07.10 22.07.10 21.07.10 - 19.07.10 25.07.10 22.07.10 21.07.10 21.07.10
_ Max-Zeit 17:20 04:42 00:30 20:04 23:19 - 07:17 13:19 13:10 17:20 23:18
Maximum _ 34.4 C 99 % 1022.2 hPa 7.6 l/m 28.6 km/h
W (4 Bft)
- 0.02 h 1125 W/m 21.7 C 34.4 C 43.5 km/h
W (6 Bft)
Durchschnitt _ 19.5 C 78 % 1015.5 hPa #27.4 l/m 2.7 km/h (1 Bft) O-SO #50:47 h 302 W/m 14.8 C 19.5 C 5.1 km/h (1 Bft)
© Kaiko 2010